• Join FlightAware (Why Join?)
  • Login
  • US Flag 
03:11AM EDT


 

Airport Tracker/Info


-or-


 

Live Flight TrackerFlight Track Log ✈ FDX1347 ✈ 08-Jul-2013 ✈ KALB - KMEM

Flight Track Log - Related Links

Times and Time Zones

All times are in EDT time to prevent confusion due to time zone crossing. See the FDX1347 flight status page for this flight to view local times or setup timezone preferences in your user account.

Time Position Orientation Groundspeed Altitude Reporting Facility
EDT Latitude Longitude Course Direction KTS MPH feet Rate Location/Type
09:52PM 42.7236 -73.8081 276° West 178 205 1,400  Level Boston Center
09:58PM 42.7710 -74.4720 279° West 403 464 17,000 2,520 Climbing FlightAware
09:58PM 42.7790 -74.5560 277° West 418 481 18,100 2,040 Climbing FlightAware
09:59PM 42.7640 -74.6720 260° West 430 495 19,700 1,860 Climbing FlightAware
10:00PM 42.7320 -74.8730 258° West 442 509 22,400 2,040 Climbing FlightAware
10:01PM 42.7030 -75.0520 258° West 455 524 24,500 1,980 Climbing FlightAware
10:02PM 42.6850 -75.1680 258° West 469 540 25,400 1,380 Climbing FlightAware
10:03PM 42.6650 -75.2990 258° West 480 552 26,500 1,140 Climbing FlightAware
10:03PM 42.6260 -75.3950 241° Southwest 492 566 27,000 960 Climbing FlightAware
10:04PM 42.5560 -75.5070 230° Southwest 501 577 27,900 1,380 Climbing FlightAware
10:05PM 42.4940 -75.6030 229° Southwest 504 580 29,000 1,560 Climbing FlightAware
10:05PM 42.4330 -75.7000 230° Southwest 495 570 30,000 1,500 Climbing FlightAware
10:06PM 42.3830 -75.7780 229° Southwest 497 572 30,900 1,800 Climbing FlightAware
10:07PM 42.3170 -75.8810 229° Southwest 489 563 32,400 2,100 Climbing FlightAware
10:07PM 42.2520 -75.9830 229° Southwest 477 549 34,000 1,680 Climbing FlightAware
10:08PM 42.1950 -76.0710 229° Southwest 480 552 34,800 1,440 Climbing FlightAware
10:09PM 42.1330 -76.1680 229° Southwest 475 547 36,000 1,320 Climbing FlightAware
10:10PM 42.0700 -76.2640 229° Southwest 480 552 36,700 1,140 Climbing FlightAware
10:10PM 42.0110 -76.3560 229° Southwest 478 550 37,600 1,080 Climbing FlightAware
10:11PM 41.9647 -76.4279 229° Southwest 478 550 38,000 300 Climbing FlightAware ADS-B
10:11PM 41.9020 -76.5230 228° Southwest 470 541 38,000  Level FlightAware
10:12PM 41.8794 -76.5580 229° Southwest 472 543 38,000  Level FlightAware ADS-B
10:12PM 41.8252 -76.6393 228° Southwest 474 545 38,000  Level FlightAware ADS-B
10:13PM 41.7800 -76.7080 229° Southwest 476 548 38,000  Level FlightAware
10:13PM 41.7622 -76.7365 230° Southwest 476 548 38,000  Level FlightAware ADS-B
10:14PM 41.7175 -76.8031 228° Southwest 480 552 38,000  Level FlightAware ADS-B
10:14PM 41.6613 -76.8877 228° Southwest 481 554 38,000  Level FlightAware ADS-B
10:15PM 41.6167 -76.9547 228° Southwest 484 557 38,000  Level FlightAware ADS-B
10:15PM 41.5662 -77.0309 228° Southwest 485 558 38,000  Level FlightAware ADS-B
10:16PM 41.5016 -77.1291 229° Southwest 485 558 38,000  Level FlightAware ADS-B
10:17PM 41.4426 -77.2158 228° Southwest 483 556 38,000  Level FlightAware ADS-B
10:17PM 41.3978 -77.2821 228° Southwest 482 555 38,000  Level FlightAware ADS-B
10:18PM 41.3421 -77.3660 229° Southwest 482 555 38,000  Level FlightAware ADS-B
10:18PM 41.2940 -77.4390 229° Southwest 478 550 38,000  Level FlightAware
10:19PM 41.2380 -77.5190 227° Southwest 476 548 38,000  Level FlightAware
10:20PM 41.1801 -77.6061 229° Southwest 474 545 38,000  Level FlightAware ADS-B
10:20PM 41.1354 -77.6708 227° Southwest 473 544 38,000  Level FlightAware ADS-B
10:21PM 41.0755 -77.7587 228° Southwest 472 543 38,000  Level FlightAware ADS-B
10:22PM 40.9940 -77.8780 228° Southwest 469 540 38,000  Level FlightAware
10:22PM 40.9470 -77.9480 228° Southwest 468 539 38,000  Level FlightAware
10:23PM 40.8800 -78.0630 232° Southwest 460 529 38,000  Level FlightAware
10:24PM 40.8360 -78.1520 237° Southwest 458 527 38,000  Level FlightAware
10:25PM 40.7890 -78.2450 236° Southwest 457 526 38,000  Level FlightAware
10:25PM 40.7310 -78.3580 236° Southwest 456 525 38,000  Level FlightAware
10:26PM 40.6780 -78.4620 236° Southwest 456 525 38,000  Level FlightAware
10:27PM 40.6300 -78.5570 236° Southwest 457 526 38,000  Level FlightAware
10:28PM 40.5770 -78.6590 236° Southwest 459 528 38,000  Level FlightAware
10:28PM 40.5330 -78.7470 237° Southwest 461 531 38,000  Level FlightAware
10:29PM 40.4700 -78.8680 236° Southwest 462 532 38,000  Level FlightAware
10:30PM 40.4170 -78.9700 236° Southwest 462 532 38,000  Level FlightAware
10:30PM 40.3630 -79.0740 236° Southwest 461 531 38,000  Level FlightAware
10:31PM 40.3220 -79.1550 236° Southwest 460 529 38,000  Level FlightAware
10:32PM 40.2710 -79.2510 235° Southwest 459 528 38,000  Level FlightAware
10:32PM 40.2210 -79.3450 235° Southwest 459 528 38,000  Level FlightAware
10:33PM 40.1680 -79.4460 236° Southwest 459 528 38,000  Level FlightAware
10:34PM 40.1140 -79.5490 236° Southwest 460 529 38,000  Level FlightAware
10:35PM 40.0660 -79.6400 235° Southwest 461 531 38,000  Level FlightAware
10:35PM 40.0150 -79.7360 235° Southwest 462 532 38,000  Level FlightAware
10:36PM 39.9660 -79.8280 235° Southwest 463 533 38,000  Level FlightAware
10:36PM 39.9270 -79.9010 235° Southwest 463 533 38,000  Level FlightAware
10:37PM 39.8700 -80.0070 235° Southwest 462 532 38,000  Level FlightAware
10:38PM 39.8210 -80.0980 235° Southwest 462 532 38,000  Level FlightAware
10:38PM 39.7790 -80.1770 235° Southwest 462 532 38,000  Level FlightAware
10:39PM 39.7260 -80.2750 235° Southwest 462 532 38,000  Level FlightAware
10:40PM 39.6550 -80.4060 235° Southwest 460 529 38,000  Level FlightAware
10:41PM 39.6030 -80.5010 235° Southwest 459 528 38,000  Level FlightAware
10:42PM 39.5530 -80.5930 235° Southwest 458 527 38,000  Level FlightAware
10:42PM 39.5040 -80.6850 235° Southwest 457 526 38,000  Level FlightAware
10:43PM 39.4550 -80.7740 235° Southwest 455 524 38,000  Level FlightAware
10:44PM 39.4080 -80.8600 235° Southwest 451 519 38,000  Level FlightAware
10:44PM 39.3610 -80.9430 234° Southwest 450 518 38,000  Level FlightAware
10:45PM 39.3100 -81.0350 234° Southwest 448 516 38,000  Level FlightAware
10:45PM 39.2670 -81.1130 235° Southwest 448 516 38,000  Level FlightAware
10:46PM 39.2120 -81.2130 235° Southwest 448 516 38,000  Level FlightAware
10:47PM 39.1690 -81.2890 234° Southwest 448 516 38,000  Level FlightAware
10:48PM 39.1150 -81.3870 235° Southwest 449 517 38,000  Level FlightAware
10:48PM 39.0600 -81.4850 234° Southwest 449 517 38,000  Level FlightAware
10:49PM 39.0110 -81.5710 234° Southwest 450 518 38,000  Level FlightAware
10:50PM 38.9600 -81.6620 234° Southwest 451 519 38,000  Level FlightAware
10:50PM 38.9080 -81.7540 234° Southwest 452 520 38,000  Level FlightAware
10:51PM 38.8560 -81.8470 234° Southwest 453 521 38,000  Level FlightAware
10:52PM 38.8030 -81.9380 233° Southwest 455 524 38,000  Level FlightAware
10:52PM 38.7540 -82.0260 234° Southwest 458 527 38,000  Level FlightAware
10:53PM 38.7020 -82.1250 236° Southwest 458 527 38,000 300 Level FlightAware
10:54PM 38.6540 -82.2180 237° Southwest 461 531 38,500 660 Climbing FlightAware
10:55PM 38.6030 -82.3130 236° Southwest 460 529 39,000 300 Climbing FlightAware
10:55PM 38.5510 -82.4110 236° Southwest 456 525 39,000  Level FlightAware
10:56PM 38.5221 -82.4669 237° Southwest 457 526 39,000  Level FlightAware ADS-B
10:57PM 38.4620 -82.5789 236° Southwest 460 529 39,000  Level FlightAware ADS-B
10:57PM 38.4150 -82.6670 236° Southwest 462 532 39,000  Level FlightAware
10:58PM 38.3600 -82.7710 236° Southwest 463 533 39,000  Level FlightAware
10:59PM 38.3140 -82.8560 235° Southwest 464 534 39,000  Level FlightAware
10:59PM 38.2670 -82.9420 235° Southwest 464 534 39,000  Level FlightAware
11:00PM 38.2140 -83.0410 236° Southwest 464 534 39,000  Level FlightAware
11:01PM 38.1680 -83.1290 236° Southwest 461 531 39,000  Level FlightAware
11:01PM 38.1130 -83.2290 235° Southwest 459 528 39,000  Level FlightAware
11:02PM 38.0852 -83.2798 235° Southwest 459 528 39,000  Level FlightAware ADS-B
11:03PM 38.0099 -83.4170 235° Southwest 458 527 39,000  Level FlightAware ADS-B
11:06PM 37.7980 -83.8030 235° Southwest 456 525 39,000  Level FlightAware
11:06PM 37.7580 -83.8760 235° Southwest 456 525 39,000  Level FlightAware
11:07PM 37.7090 -83.9650 235° Southwest 456 525 39,000  Level FlightAware
11:08PM 37.6500 -84.0710 235° Southwest 460 529 39,000  Level FlightAware
11:09PM 37.5990 -84.1770 239° Southwest 466 536 39,000  Level FlightAware
11:09PM 37.5561 -84.2721 240° Southwest 468 539 39,000  Level FlightAware ADS-B
11:10PM 37.5182 -84.3574 241° Southwest 469 540 39,000  Level FlightAware ADS-B
11:10PM 37.4727 -84.4575 240° Southwest 470 541 39,000  Level FlightAware ADS-B
11:11PM 37.4367 -84.5383 241° Southwest 470 541 39,000  Level FlightAware ADS-B
11:12PM 37.4011 -84.6167 240° Southwest 471 542 39,000  Level FlightAware ADS-B
11:12PM 37.3686 -84.6878 240° Southwest 471 542 39,000  Level FlightAware ADS-B
11:13PM 37.3355 -84.7613 240° Southwest 471 542 39,000  Level FlightAware ADS-B
11:13PM 37.3029 -84.8324 240° Southwest 471 542 39,000  Level FlightAware ADS-B
11:14PM 37.2700 -84.9035 240° Southwest 471 542 39,000  Level FlightAware ADS-B
11:14PM 37.2361 -84.9765 240° Southwest 470 541 39,000  Level FlightAware ADS-B
11:15PM 37.2026 -85.0497 240° Southwest 470 541 39,000  Level FlightAware ADS-B
11:15PM 37.1698 -85.1203 240° Southwest 471 542 39,000  Level FlightAware ADS-B
11:16PM 37.1346 -85.1960 240° Southwest 471 542 39,000  Level FlightAware ADS-B
11:16PM 37.1011 -85.2667 239° Southwest 472 543 39,000  Level FlightAware ADS-B
11:17PM 37.0673 -85.3400 240° Southwest 473 544 39,000  Level FlightAware ADS-B
11:17PM 37.0338 -85.4110 239° Southwest 475 547 39,000  Level FlightAware ADS-B
11:18PM 36.9976 -85.4893 240° Southwest 476 548 39,000  Level FlightAware ADS-B
11:18PM 36.9635 -85.5630 240° Southwest 476 548 39,000  Level FlightAware ADS-B
11:19PM 36.9298 -85.6343 239° Southwest 477 549 39,000  Level FlightAware ADS-B
11:19PM 36.8918 -85.7150 240° Southwest 478 550 39,000  Level FlightAware ADS-B
11:20PM 36.8568 -85.7885 239° Southwest 477 549 39,000  Level FlightAware ADS-B
11:21PM 36.8160 -85.8740 239° Southwest 477 549 39,000  Level FlightAware
11:21PM 36.7650 -85.9830 240° Southwest 477 549 39,000  Level FlightAware
11:21PM 36.7526 -86.0087 239° Southwest 477 549 39,000  Level FlightAware ADS-B
11:22PM 36.7185 -86.0794 239° Southwest 477 549 39,000  Level FlightAware ADS-B
11:22PM 36.6828 -86.1552 240° Southwest 478 550 39,000  Level FlightAware ADS-B
11:23PM 36.6488 -86.2261 239° Southwest 478 550 39,000  Level FlightAware ADS-B
11:23PM 36.6139 -86.2995 239° Southwest 479 551 39,000  Level FlightAware ADS-B
11:24PM 36.5787 -86.3729 239° Southwest 481 554 39,000  Level FlightAware ADS-B
11:25PM 36.5450 -86.4420 239° Southwest 477 549 39,000  Level FlightAware
11:25PM 36.4980 -86.5390 239° Southwest 478 550 39,000  Level FlightAware
11:25PM 36.4840 -86.5676 239° Southwest 482 555 39,000 -600 Level FlightAware ADS-B
11:27PM 36.4010 -86.7410 239° Southwest 479 551 38,200 -540 Descending FlightAware
11:27PM 36.3550 -86.8340 238° Southwest 481 554 38,000 -180 Descending FlightAware
11:28PM 36.3010 -86.9430 238° Southwest 484 557 38,000  Level FlightAware
11:29PM 36.2610 -87.0270 239° Southwest 484 557 38,000  Level FlightAware
11:29PM 36.2130 -87.1230 238° Southwest 491 565 38,000  Level FlightAware
11:30PM 36.1660 -87.2190 239° Southwest 491 565 38,000  Level FlightAware
11:31PM 36.1130 -87.3270 239° Southwest 490 564 38,000  Level FlightAware
11:31PM 36.0620 -87.4300 239° Southwest 490 564 38,000  Level FlightAware
11:32PM 36.0110 -87.5320 238° Southwest 487 560 38,000 -300 Level FlightAware
11:33PM 35.9620 -87.6310 239° Southwest 478 550 37,600 -960 Descending FlightAware
11:33PM 35.9130 -87.7280 238° Southwest 482 555 36,700 -1,980 Descending FlightAware
11:34PM 35.8720 -87.8090 238° Southwest 492 566 35,100 -3,120 Descending FlightAware
11:35PM 35.8270 -87.9000 239° Southwest 495 570 33,000 -3,480 Descending FlightAware
11:35PM 35.7730 -88.0050 238° Southwest 496 571 30,400 -2,400 Descending FlightAware
11:36PM 35.7090 -88.1330 238° Southwest 487 560 29,000 -840 Descending FlightAware
11:37PM 35.6600 -88.2290 238° Southwest 487 560 29,000  Level FlightAware
11:38PM 35.6120 -88.3250 238° Southwest 487 560 29,000  Level FlightAware
11:39PM 35.5650 -88.4170 238° Southwest 487 560 29,000  Level FlightAware
11:39PM 35.5280 -88.4890 238° Southwest 487 560 29,000 -5,040 Level FlightAware
11:41PM 35.3689 -88.6486 238° Southwest 432 497 19,000 -5,460 Descending Memphis Center
11:42PM 35.2889 -88.7494 226° Southwest 427 491 15,900 -3,060 Descending Memphis Center
11:43PM 35.2128 -88.8422 225° Southwest 406 467 12,900 -2,760 Descending Memphis Center
11:44PM 35.1408 -88.9325 226° Southwest 390 449 10,400 -1,860 Descending Memphis Center
11:45PM 35.0814 -89.0147 229° Southwest 349 402 9,200 -1,200 Descending Memphis Center
11:46PM 35.0361 -89.0789 229° Southwest 302 348 8,100 -1,200 Descending Memphis Center
11:47PM 35.0350 -89.1703 269° West 252 290 6,800 -1,080 Descending Memphis Center
11:48PM 35.0400 -89.2589 274° West 262 302 6,000 -1,080 Descending Memphis Center
11:49PM 35.0428 -89.3500 272° West 273 314 4,700 -1,020 Descending Memphis Center
11:50PM 35.0436 -89.4364 271° West 268 308 4,000 -360 Descending Memphis Center
11:51PM 35.0464 -89.5253 272° West 268 308 4,000 -60 Level Memphis Center
11:52PM 35.0508 -89.6139 274° West 268 308 3,900 -540 Descending Memphis Center
11:53PM 35.0536 -89.6950 272° West 251 289 3,000 -480 Descending Memphis Center
11:54PM 35.0539 -89.7711 270° West 237 273 3,000 -360 Level Memphis Center
11:55PM 35.0542 -89.8344 270° West 201 231 2,300 -780 Descending Memphis Center
11:56PM 35.0586 -89.8878 276° West 175 201 1,500 -780 Descending Memphis Center
11:57PM 35.0589 -89.9308 270° West 145 167 800 -540 Descending Memphis Center
11:58PM 35.0589 -89.9842 270° West 140 161 500 -300 Descending Memphis Center
12:00AM 35.0424 -89.9767 270° West  Level Estimated
12:07AM 35.0424 -89.9767 270° West  Level Estimated
12:08AM 35.0424 -89.9767 270° West  Level Estimated
12:09AM 35.0424 -89.9767 270° West  Level Estimated
12:10AM 35.0424 -89.9767 270° West  Level Estimated